Relevés horaires Matro (Suisse)


Relevés horaires à Matro - Samedi 31 Juill. 2021
Heure UTC1 Température [°C] Vent [km/h] Hum. [%] Pres.4 [hPa] Visi. [Km] Nébu. [octa] Préc.5 [mm] Cond.
2m. Res. Ros. Dir.2 Vit. Moy. Raf.3
23:00 8.0 3.9 6.2 SSO 31.5 -- 42.6 88 850(-1.5/3h) -- -- -- --
22:00 9.1 6 5.5 SE 22.2 -- 27.8 78 850(-1.1/3h) -- -- -- --
21:00 8.6 7.5 5.5 NE 7.4 -- 48.2 81 850(-1.9/3h) -- -- -- --
20:00 7.1 6.3 7.0 N 5.6 -- 27.8 99 850(-0.8/3h) -- -- -- --
19:00 7.6 6.3 7.1 SO 7.4 -- 48.2 97 850(-1.2/3h) -- -- -- --
18:00 8.9 4.6 7.6 SE 38.9 -- 53.7 92 850(-0.6/3h) -- -- -- --
17:00 9.0 6.7 7.4 E 14.8 -- 22.2 90 850(-0.6/3h) -- -- -- --
16:00 8.6 7.1 7.3 N 9.3 -- 16.7 92 850(-0.1/3h) -- -- -- --
15:00 9.4 7.2 6.3 S 14.8 -- 53.7 81 850(0.2/3h) -- -- -- --
14:00 10.6 9.5 6.9 ESE 9.3 -- 42.6 78 850(-0.3/3h) -- -- -- --
13:00 10.9 7.1 8.5 SE 40.7 -- 53.7 85 850(-0.8/3h) -- -- -- --
12:00 12.1 9.7 9.8 SSE 24.1 -- 38.9 86 850(-0.7/3h) -- -- -- --
11:00 11.5 8.8 9.6 SSE 25.9 -- 38.9 88 850(-0.2/3h) -- -- -- --
10:00 11.7 9.3 9.6 SSE 22.2 -- 33.3 87 850(0.0/3h) -- -- -- --
09:00 11.5 9.2 9.3 SSE 20.4 -- 38.9 86 850(0.4/3h) -- -- -- --
08:00 10.4 7.7 9.0 SE 22.2 -- 38.9 91 850(0.4/3h) -- -- -- --
07:00 10.1 7.3 8.4 SSE 22.2 -- 33.3 89 850(0.1/3h) -- -- -- --
06:00 9.8 7.5 9.0 SE 16.7 -- 31.5 95 850(0.0/3h) -- -- -- --
05:00 9.9 7 8.3 SSE 22.2 -- 24.1 90 850(-0.6/3h) -- -- -- --
04:00 10.5 8.6 8.4 SE 14.8 -- 18.5 87 850(-0.9/3h) -- -- -- --
03:00 10.4 8 8.6 SSE 18.5 -- 31.5 89 850(-1.3/3h) -- -- -- --
02:00 10.0 7 9.7 SE 24.1 -- 31.5 98 850(-0.9/3h) -- -- -- --
01:00 10.5 8.8 8.8 SSE 13.0 -- 18.5 89 850(-0.3/3h) -- -- -- --
00:00 10.4 8.2 10.1 SSE 16.7 -- 38.9 98 850(-0.2/3h) -- -- -- --

1 Coordinated Universal Time. Actuellement il est 07:00 locale et 05:00 UTC.

2 Le vent souffle depuis la direction indiquée vers la direction oposée.

3 Les rafales max. sont disponible 40 min après l'heure du relevé.

4 Pour les stations d'altitude (plus de 600m) le géopotentiel du niveau le plus proche de la pression obligatoire est indiqué.

5 Les stations disposant d'un diffuseur peuvent indiquer "trace". Cela signifie que des précipitations ont touchés le sol mais que la quantité est inférieure à 0.1 mm.

Copyright

Les données affichées sur cette page sont la propriété exclusive de Météo Suisse.

Récapitulatif de la journée
Température [°C] Vent [km/h] Ensoleillement4 [h] Precipitations totale5 [mm] Pression [Hpa]
Min1 Max.2 Moy.3 Max. Min Max.
9.9 12.2 0 53.7 5 h 24 min 0 850.0 850.0

1 Température minimale relevée entre 18:00 UTC la veille et 18:00 UTC le jour donné.

2 Température maximale relevée entre 06:00 UTC le jour donné et 06:00 UTC le lendemain.

3 Vent moyen de la journée basé sur les relevés horaires.

4 Ensoleillement en heures relevé entre 06:00 UTC la veille et 06:00 UTC le jour donné.

5 Précipitations totales tombées entre 06:00 UTC la jour donné et 06:00 UTC le lendemain.

Graphiques horaires